Time;durP1;ratioP1;P1;durP2;ratioP2;P2;SDS_P1;SDS_P2;PMS_P1;PMS_P2;Temp;Humidity;BMP_temperature;BMP_pressure;BME280_temperature;BME280_humidity;BME280_pressure;Samples;Min_cycle;Max_cycle;Signal;HPM_P1;HPM_P2
2022/06/15 00:01:00;;;;;;;5.30;2.10;;;;;;;15.89;57.41;101414.38;106957;1253;71770;-79
2022/06/15 00:03:32;;;;;;;3.80;1.90;;;;;;;15.86;57.00;101414.98;107256;1253;61836;-81
2022/06/15 00:06:36;;;;;;;4.00;2.00;;;;;;;15.81;56.95;101411.73;107103;1253;61847;-79
2022/06/15 00:09:05;;;;;;;3.30;2.20;;;;;;;15.78;57.05;101406.71;106975;1253;72155;-78
2022/06/15 00:11:39;;;;;;;4.80;2.10;;;;;;;15.78;57.58;101405.71;107113;1253;73045;-77
2022/06/15 00:14:24;;;;;;;6.80;2.30;;;;;;;15.82;57.37;101407.80;107134;1254;69770;-79
2022/06/15 00:16:54;;;;;;;5.70;2.50;;;;;;;15.83;57.75;101404.69;107041;1253;72430;-79
2022/06/15 00:19:23;;;;;;;6.50;2.00;;;;;;;15.78;58.67;101403.56;106972;1253;59109;-78
2022/06/15 00:21:52;;;;;;;8.90;2.50;;;;;;;15.75;58.95;101403.64;107245;1253;60143;-80
2022/06/15 00:24:20;;;;;;;5.60;2.20;;;;;;;15.68;58.34;101402.09;106864;1253;73272;-80
2022/06/15 00:26:49;;;;;;;5.10;1.90;;;;;;;15.61;57.17;101401.55;106952;1253;70664;-79
2022/06/15 00:29:18;;;;;;;5.60;2.10;;;;;;;15.54;57.26;101402.17;106780;1256;68194;-80
2022/06/15 00:31:47;;;;;;;5.20;2.20;;;;;;;15.47;57.24;101401.39;106825;1253;72905;-81
2022/06/15 00:34:17;;;;;;;7.20;3.10;;;;;;;15.41;57.42;101403.80;106963;1253;58974;-80
2022/06/15 00:36:46;;;;;;;4.60;2.00;;;;;;;15.32;58.21;101405.86;106991;1253;60444;-77
2022/06/15 00:39:17;;;;;;;5.20;2.10;;;;;;;15.25;60.07;101401.96;106817;1253;73642;-79
2022/06/15 00:41:46;;;;;;;5.30;2.10;;;;;;;15.19;60.71;101405.41;106764;1254;70621;-77
2022/06/15 00:44:21;;;;;;;7.70;2.30;;;;;;;15.10;61.06;101402.45;106977;1254;68808;-77
2022/06/15 00:47:00;;;;;;;4.00;2.20;;;;;;;15.00;61.48;101407.23;106848;1253;73956;-78
2022/06/15 00:49:41;;;;;;;6.90;2.30;;;;;;;14.93;61.91;101407.15;106806;1255;61937;-78
2022/06/15 00:52:38;;;;;;;5.50;2.10;;;;;;;14.88;61.31;101409.29;107128;1253;61803;-81
2022/06/15 00:55:21;;;;;;;3.20;2.00;;;;;;;14.81;61.79;101407.72;106823;1253;71367;-82
2022/06/15 00:57:50;;;;;;;3.30;2.20;;;;;;;14.78;61.81;101408.98;106980;1253;71575;-81
2022/06/15 01:00:20;;;;;;;4.20;2.20;;;;;;;14.73;62.53;101405.20;106808;1255;68231;-77
2022/06/15 01:02:50;;;;;;;4.20;2.10;;;;;;;14.66;62.54;101404.70;106564;1256;72377;-79
2022/06/15 01:05:22;;;;;;;4.90;2.00;;;;;;;14.61;62.34;101407.35;106677;1256;58943;-80
2022/06/15 01:08:15;;;;;;;5.20;2.40;;;;;;;14.53;62.45;101413.78;106753;1254;59859;-79
2022/06/15 01:11:09;;;;;;;5.20;2.30;;;;;;;14.41;61.18;101412.77;106559;1256;71679;-78
2022/06/15 01:13:59;;;;;;;7.20;2.20;;;;;;;14.25;62.53;101416.60;106796;1256;70470;-76
2022/06/15 01:16:38;;;;;;;6.60;2.50;;;;;;;14.12;63.61;101413.23;106757;1255;70664;-78
2022/06/15 01:19:24;;;;;;;8.50;2.50;;;;;;;14.05;64.23;101413.95;107040;1256;73783;-77
2022/06/15 01:22:11;;;;;;;5.30;2.20;;;;;;;13.99;66.48;101414.25;107925;1255;62079;-77
2022/06/15 01:24:51;;;;;;;4.70;2.00;;;;;;;13.93;65.80;101416.98;107241;1256;59058;-79
2022/06/15 01:27:39;;;;;;;4.20;2.20;;;;;;;13.84;66.15;101419.94;107031;1255;72995;-79
2022/06/15 01:30:53;;;;;;;3.50;2.00;;;;;;;13.75;65.80;101421.64;106950;1255;72821;-78
2022/06/15 01:33:34;;;;;;;4.70;2.00;;;;;;;13.62;64.77;101416.64;106513;1256;69091;-79
2022/06/15 01:36:37;;;;;;;4.10;2.10;;;;;;;13.49;64.78;101427.74;107055;1253;73957;-79
2022/06/15 01:39:28;;;;;;;4.60;2.20;;;;;;;13.36;65.77;101430.07;106841;1253;63516;-78
2022/06/15 01:42:15;;;;;;;3.10;2.10;;;;;;;13.26;66.04;101431.18;106976;1253;62141;-77
2022/06/15 01:44:51;;;;;;;4.20;2.30;;;;;;;13.14;66.49;101434.82;106809;1253;74467;-78
2022/06/15 01:47:24;;;;;;;7.50;2.30;;;;;;;13.09;66.45;101437.11;106898;1253;71830;-76
2022/06/15 01:50:07;;;;;;;6.50;2.10;;;;;;;13.05;66.55;101443.36;106793;1253;70669;-79
2022/06/15 01:52:49;;;;;;;4.30;2.30;;;;;;;13.02;66.98;101443.36;106745;1253;74593;-79
2022/06/15 01:55:53;;;;;;;4.20;2.30;;;;;;;13.01;67.00;101444.49;106881;1253;61938;-78
2022/06/15 01:58:27;;;;;;;3.90;2.30;;;;;;;13.02;66.65;101442.81;106915;1253;60367;-78
2022/06/15 02:01:12;;;;;;;4.80;2.30;;;;;;;13.02;66.99;101441.80;106818;1255;70830;-78
2022/06/15 02:03:52;;;;;;;5.90;2.20;;;;;;;13.02;68.39;101441.28;106687;1256;69768;-77
2022/06/15 02:06:44;;;;;;;4.80;2.70;;;;;;;13.00;68.92;101440.35;106786;1253;69705;-78
2022/06/15 02:09:28;;;;;;;3.60;2.30;;;;;;;12.99;69.73;101435.50;106919;1254;72629;-79
2022/06/15 02:12:01;;;;;;;7.20;2.60;;;;;;;13.04;70.48;101434.48;107025;1253;62989;-78
2022/06/15 02:14:46;;;;;;;5.40;2.40;;;;;;;13.08;70.71;101441.88;106880;1253;61026;-78
2022/06/15 02:17:27;;;;;;;4.70;2.30;;;;;;;13.10;69.90;101443.83;106957;1254;70967;-78
2022/06/15 02:20:11;;;;;;;8.20;2.70;;;;;;;13.16;69.69;101447.81;107094;1253;72433;-79
2022/06/15 02:22:41;;;;;;;8.10;3.00;;;;;;;13.19;68.68;101448.64;106995;1253;69769;-78
2022/06/15 02:25:17;;;;;;;7.30;3.60;;;;;;;13.21;67.99;101445.67;107100;1253;72622;-79
2022/06/15 02:27:50;;;;;;;6.10;2.90;;;;;;;13.24;67.38;101444.27;107078;1253;59065;-79
2022/06/15 02:30:23;;;;;;;6.20;3.20;;;;;;;13.25;66.99;101446.41;106878;1253;61134;-78
2022/06/15 02:33:09;;;;;;;6.50;2.80;;;;;;;13.25;66.82;101446.98;107089;1253;72309;-79
2022/06/15 02:35:40;;;;;;;4.60;2.90;;;;;;;13.22;67.78;101452.08;106917;1253;72624;-78
2022/06/15 02:38:13;;;;;;;5.00;2.40;;;;;;;13.20;67.86;101455.40;106954;1253;69123;-79
2022/06/15 02:40:41;;;;;;;4.70;2.80;;;;;;;13.14;67.42;101456.65;106696;1253;74376;-77
2022/06/15 02:43:13;;;;;;;5.60;2.70;;;;;;;13.09;67.38;101454.61;107002;1253;63021;-78
2022/06/15 02:45:47;;;;;;;5.70;2.90;;;;;;;13.06;67.88;101458.14;107022;1253;59144;-78
2022/06/15 02:48:18;;;;;;;6.10;3.00;;;;;;;13.09;67.95;101461.27;107047;1253;70323;-80
2022/06/15 02:50:52;;;;;;;5.40;2.80;;;;;;;13.12;67.63;101455.96;107145;1253;72327;-79
2022/06/15 02:53:27;;;;;;;5.90;2.60;;;;;;;13.21;67.72;101462.30;107224;1253;70239;-76
2022/06/15 02:55:59;;;;;;;8.80;3.40;;;;;;;13.25;67.55;101463.81;106907;1253;74350;-81
2022/06/15 02:58:37;;;;;;;3.50;2.10;;;;;;;13.28;67.21;101466.03;107108;1253;63419;-77
2022/06/15 03:01:07;;;;;;;6.30;2.80;;;;;;;13.32;67.71;101463.31;107120;1253;61270;-79
2022/06/15 03:03:38;;;;;;;10.00;2.90;;;;;;;13.37;67.95;101463.92;107071;1254;71608;-77
2022/06/15 03:06:19;;;;;;;5.80;2.80;;;;;;;13.45;67.34;101464.95;106864;1253;72271;-78
2022/06/15 03:08:49;;;;;;;5.50;2.70;;;;;;;13.50;67.70;101462.30;106871;1253;68624;-78
2022/06/15 03:11:27;;;;;;;5.90;2.90;;;;;;;13.65;68.53;101463.52;106897;1253;74536;-79
2022/06/15 03:13:59;;;;;;;7.00;3.00;;;;;;;13.74;68.45;101461.96;107114;1252;59226;-80
2022/06/15 03:16:29;;;;;;;6.00;3.00;;;;;;;13.84;67.65;101464.02;106998;1252;61789;-80
2022/06/15 03:18:59;;;;;;;7.50;3.10;;;;;;;13.94;66.18;101461.55;106950;1253;73401;-79
2022/06/15 03:21:27;;;;;;;9.60;3.60;;;;;;;14.00;65.59;101466.50;106850;1254;71839;-80
2022/06/15 03:23:56;;;;;;;9.20;3.30;;;;;;;14.03;66.04;101470.46;106963;1253;71360;-80
2022/06/15 03:26:25;;;;;;;9.30;3.00;;;;;;;14.11;67.12;101471.67;106830;1254;72734;-78
2022/06/15 03:28:54;;;;;;;6.50;3.20;;;;;;;14.19;66.63;101473.67;106977;1253;63833;-81
2022/06/15 03:31:23;;;;;;;8.50;4.30;;;;;;;14.28;66.60;101476.64;106904;1253;61689;-79
2022/06/15 03:33:52;;;;;;;7.60;3.70;;;;;;;14.37;65.99;101475.65;106861;1253;72072;-81
2022/06/15 03:36:23;;;;;;;9.50;3.30;;;;;;;14.44;65.66;101476.84;106938;1252;72888;-79
2022/06/15 03:38:53;;;;;;;4.60;3.30;;;;;;;14.48;65.84;101476.88;106904;1253;70951;-81
2022/06/15 03:41:26;;;;;;;6.50;3.30;;;;;;;14.55;65.39;101473.92;106958;1253;73990;-80
2022/06/15 03:43:55;;;;;;;9.60;3.30;;;;;;;14.64;65.54;101474.28;106999;1253;62120;-80
2022/06/15 03:46:26;;;;;;;12.00;3.80;;;;;;;14.76;65.08;101473.52;106937;1253;60902;-81
2022/06/15 03:48:59;;;;;;;15.10;3.80;;;;;;;14.81;64.17;101470.19;107060;1253;72468;-80
2022/06/15 03:51:28;;;;;;;9.80;3.80;;;;;;;14.88;64.05;101474.01;107084;1253;72022;-80
2022/06/15 03:54:03;;;;;;;7.40;4.00;;;;;;;14.95;63.81;101476.19;107142;1253;71509;-81
2022/06/15 03:56:48;;;;;;;6.70;3.20;;;;;;;15.06;63.51;101475.88;107126;1253;72967;-78
2022/06/15 03:59:24;;;;;;;5.90;3.30;;;;;;;15.16;63.24;101477.62;107118;1253;59924;-82
2022/06/15 04:01:55;;;;;;;6.60;3.20;;;;;;;15.26;62.85;101484.85;106850;1252;59303;-83
2022/06/15 04:04:24;;;;;;;7.50;3.20;;;;;;;15.29;62.85;101482.98;106918;1253;70923;-79
2022/06/15 04:06:53;;;;;;;6.80;3.80;;;;;;;15.34;62.98;101481.00;107051;1253;70059;-81
2022/06/15 04:09:26;;;;;;;9.20;3.60;;;;;;;15.38;63.10;101483.34;107100;1253;69828;-80
2022/06/15 04:12:08;;;;;;;6.60;3.60;;;;;;;15.41;63.16;101486.25;107141;1253;73471;-79
2022/06/15 04:14:42;;;;;;;7.50;3.70;;;;;;;15.58;62.75;101488.42;107113;1253;60694;-80
2022/06/15 04:17:21;;;;;;;9.40;4.00;;;;;;;15.77;62.40;101487.73;106992;1253;61091;-79
2022/06/15 04:22:49;;;;;;;7.20;3.30;;;;;;;16.10;61.43;101482.05;107085;1251;71636;-78
2022/06/15 04:25:18;;;;;;;6.90;3.00;;;;;;;16.26;60.70;101488.08;106797;1253;70398;-78
2022/06/15 04:27:47;;;;;;;6.00;3.40;;;;;;;16.43;60.00;101491.05;106944;1254;71045;-81
2022/06/15 04:30:16;;;;;;;6.90;3.10;;;;;;;16.52;59.44;101491.17;106870;1254;58999;-79
2022/06/15 04:32:52;;;;;;;5.40;2.80;;;;;;;16.62;59.11;101490.12;106884;1253;61321;-80
2022/06/15 04:35:25;;;;;;;7.10;3.10;;;;;;;16.77;58.12;101493.27;107076;1253;75106;-79
2022/06/15 04:37:54;;;;;;;6.90;3.20;;;;;;;16.77;58.56;101494.15;107340;1253;72871;-80
2022/06/15 04:40:35;;;;;;;7.50;3.30;;;;;;;16.89;58.32;101492.39;107365;1253;68582;-81
2022/06/15 04:43:06;;;;;;;9.10;4.40;;;;;;;17.04;58.09;101493.52;107393;1253;73919;-79
2022/06/15 04:45:36;;;;;;;5.40;3.00;;;;;;;17.15;57.52;101501.86;107364;1254;59278;-78
2022/06/15 04:48:09;;;;;;;4.40;2.70;;;;;;;17.26;57.41;101501.98;106975;1253;60530;-79
2022/06/15 04:50:39;;;;;;;8.40;3.00;;;;;;;17.37;56.90;101499.98;107049;1253;73329;-79
2022/06/15 04:53:08;;;;;;;8.90;3.60;;;;;;;17.44;56.83;101503.72;106859;1253;69970;-80
2022/06/15 04:55:37;;;;;;;7.40;2.90;;;;;;;17.48;56.56;101505.47;106715;1253;67953;-80
2022/06/15 04:58:07;;;;;;;4.30;2.60;;;;;;;17.46;56.66;101507.06;106995;1253;72004;-80
2022/06/15 05:00:46;;;;;;;5.30;2.70;;;;;;;17.55;55.87;101506.66;106954;1253;60669;-79
2022/06/15 05:03:16;;;;;;;6.20;2.50;;;;;;;17.68;55.71;101509.23;107153;1253;59346;-79
2022/06/15 05:05:45;;;;;;;5.50;2.60;;;;;;;17.79;54.53;101514.20;107139;1254;71733;-80
2022/06/15 05:08:14;;;;;;;6.50;2.80;;;;;;;17.77;54.34;101509.60;106977;1253;69409;-83
2022/06/15 05:10:46;;;;;;;6.50;2.40;;;;;;;17.80;54.47;101511.46;107139;1252;67946;-80
2022/06/15 05:13:16;;;;;;;6.50;3.10;;;;;;;17.88;54.10;101515.67;107154;1253;73887;-79
2022/06/15 05:15:47;;;;;;;4.60;2.40;;;;;;;18.01;53.27;101514.00;107152;1254;59051;-79
2022/06/15 05:18:16;;;;;;;5.20;2.20;;;;;;;18.25;53.26;101509.84;107077;1253;61427;-80
2022/06/15 05:20:47;;;;;;;4.10;2.50;;;;;;;18.35;53.06;101514.02;107105;1253;71327;-81
2022/06/15 05:23:20;;;;;;;4.70;2.60;;;;;;;18.38;52.55;101510.04;107045;1253;61945;-80
2022/06/15 05:26:11;;;;;;;5.70;2.40;;;;;;;18.44;52.30;101516.91;107271;1253;60546;-81
2022/06/15 05:28:44;;;;;;;6.10;2.40;;;;;;;18.36;51.88;101518.34;107242;1253;73130;-81
2022/06/15 05:31:20;;;;;;;5.30;2.30;;;;;;;18.41;52.01;101519.70;107118;1253;58806;-81
2022/06/15 05:33:56;;;;;;;5.60;2.10;;;;;;;18.45;52.21;101519.56;107099;1251;59589;-81
2022/06/15 05:36:33;;;;;;;8.40;2.50;;;;;;;18.44;51.91;101520.94;106955;1253;72930;-80
2022/06/15 05:39:04;;;;;;;5.10;2.40;;;;;;;18.48;51.82;101529.17;107131;1253;72628;-82
2022/06/15 05:41:35;;;;;;;4.10;2.10;;;;;;;18.62;51.48;101529.84;107186;1253;70142;-83
2022/06/15 05:46:44;;;;;;;5.80;2.60;;;;;;;18.70;50.87;101520.61;107116;1255;58769;-83
2022/06/15 05:49:34;;;;;;;3.80;2.10;;;;;;;18.69;50.46;101520.68;107583;1252;58670;-85
2022/06/15 05:52:05;;;;;;;6.50;2.30;;;;;;;18.70;49.90;101523.61;107602;1253;72785;-83
2022/06/15 05:54:35;;;;;;;5.20;2.70;;;;;;;18.87;50.18;101525.58;107531;1253;71848;-83
2022/06/15 05:57:15;;;;;;;6.00;2.30;;;;;;;18.97;49.93;101523.40;107253;1253;71250;-83
2022/06/15 05:59:50;;;;;;;5.00;2.40;;;;;;;18.94;50.15;101520.35;107224;1253;63949;-80
2022/06/15 06:02:21;;;;;;;4.70;2.10;;;;;;;18.98;49.75;101523.64;106935;1253;60629;-81
2022/06/15 06:04:51;;;;;;;4.70;2.30;;;;;;;18.86;50.68;101524.95;107232;1253;59047;-80
2022/06/15 06:07:22;;;;;;;7.60;2.20;;;;;;;18.88;50.30;101524.96;107044;1253;63023;-81
2022/06/15 06:09:51;;;;;;;6.30;2.00;;;;;;;18.89;49.66;101524.71;107074;1254;60921;-82
2022/06/15 06:12:20;;;;;;;5.70;2.60;;;;;;;18.84;49.27;101526.38;107149;1253;69415;-85
2022/06/15 06:14:51;;;;;;;6.40;2.40;;;;;;;18.95;49.63;101530.48;107156;1253;73695;-82
2022/06/15 06:17:21;;;;;;;4.80;2.50;;;;;;;18.96;49.15;101529.70;107096;1253;58882;-84
2022/06/15 06:19:49;;;;;;;4.20;2.10;;;;;;;19.01;49.37;101527.62;106929;1253;61344;-82
2022/06/15 06:22:18;;;;;;;10.00;2.60;;;;;;;18.99;49.11;101529.85;107069;1253;74238;-82
2022/06/15 06:24:51;;;;;;;7.10;2.60;;;;;;;19.07;48.77;101527.20;106880;1253;73215;-83
2022/06/15 06:27:20;;;;;;;7.40;2.40;;;;;;;19.11;48.60;101526.46;106992;1253;70961;-83
2022/06/15 06:29:48;;;;;;;5.00;2.30;;;;;;;19.19;48.52;101525.23;107003;1253;74285;-84
2022/06/15 06:32:17;;;;;;;4.90;2.40;;;;;;;19.32;48.35;101527.60;107073;1253;57844;-78
2022/06/15 06:34:46;;;;;;;5.50;2.70;;;;;;;19.36;47.98;101521.95;107006;1253;58689;-78
2022/06/15 06:37:15;;;;;;;3.60;1.70;;;;;;;19.39;46.43;101523.63;106975;1253;72743;-85
2022/06/15 06:39:44;;;;;;;8.00;2.00;;;;;;;19.43;44.36;101524.08;106907;1253;61436;-80
2022/06/15 06:42:13;;;;;;;2.90;1.30;;;;;;;19.56;42.58;101526.33;106926;1253;68101;-82
2022/06/15 06:44:44;;;;;;;5.60;1.70;;;;;;;19.75;43.63;101528.26;106933;1253;73883;-81
2022/06/15 06:47:13;;;;;;;2.70;1.40;;;;;;;19.90;41.56;101524.09;107089;1253;58787;-79
2022/06/15 06:49:43;;;;;;;3.30;1.70;;;;;;;20.03;40.32;101521.88;107190;1253;57550;-79
2022/06/15 06:52:12;;;;;;;3.30;1.40;;;;;;;20.23;40.64;101522.73;106900;1256;62208;-81
2022/06/15 06:54:41;;;;;;;4.50;1.40;;;;;;;20.36;39.23;101519.25;106959;1253;71294;-81
2022/06/15 06:57:10;;;;;;;2.90;1.40;;;;;;;20.51;38.59;101518.02;106997;1253;62870;-82
2022/06/15 06:59:39;;;;;;;3.30;1.30;;;;;;;20.71;39.43;101519.52;106968;1252;73474;-83
2022/06/15 07:02:10;;;;;;;4.00;1.40;;;;;;;20.76;39.33;101520.51;106964;1253;62207;-82
2022/06/15 07:04:39;;;;;;;3.50;1.40;;;;;;;20.78;39.03;101521.77;107074;1253;58692;-80
2022/06/15 07:07:07;;;;;;;3.10;1.20;;;;;;;20.79;39.17;101518.63;106964;1253;64027;-80
2022/06/15 07:09:37;;;;;;;5.20;1.50;;;;;;;20.87;38.78;101517.79;107076;1253;61379;-81
2022/06/15 07:12:06;;;;;;;3.50;1.50;;;;;;;20.87;38.66;101518.77;107062;1253;70012;-82
2022/06/15 07:14:35;;;;;;;3.50;1.40;;;;;;;21.00;38.50;101519.26;107092;1253;63174;-82
2022/06/15 07:17:04;;;;;;;3.40;1.50;;;;;;;21.12;37.61;101519.38;107136;1253;59806;-80
2022/06/15 07:19:33;;;;;;;3.90;1.30;;;;;;;21.29;38.17;101515.23;107123;1253;61960;-81
2022/06/15 07:22:02;;;;;;;3.30;1.20;;;;;;;21.60;37.61;101521.52;107132;1253;64592;-83
2022/06/15 07:24:31;;;;;;;3.30;1.30;;;;;;;21.57;36.70;101518.14;107066;1254;61565;-83
2022/06/15 07:27:00;;;;;;;4.60;1.50;;;;;;;21.74;36.34;101521.27;107225;1253;70521;-78
2022/06/15 07:29:28;;;;;;;2.30;1.30;;;;;;;21.83;36.25;101522.73;107130;1253;74352;-82
2022/06/15 07:31:57;;;;;;;3.70;1.50;;;;;;;21.77;36.30;101519.70;107068;1254;58983;-82
2022/06/15 07:34:26;;;;;;;3.40;1.50;;;;;;;21.50;35.87;101525.24;107181;1253;60385;-84
2022/06/15 07:36:54;;;;;;;4.80;1.70;;;;;;;21.53;36.53;101522.48;107064;1254;73715;-83
2022/06/15 07:39:29;;;;;;;4.60;1.40;;;;;;;21.57;36.79;101522.91;107162;1253;70945;-82
2022/06/15 07:42:05;;;;;;;2.20;1.20;;;;;;;21.53;36.84;101522.13;107534;1249;60393;-83
2022/06/15 07:44:36;;;;;;;2.30;1.50;;;;;;;21.43;37.20;101522.63;107296;1249;73186;-81
2022/06/15 07:49:56;;;;;;;3.30;1.30;;;;;;;21.26;37.26;101518.41;107608;1249;59402;-83
2022/06/15 07:52:50;;;;;;;3.90;1.40;;;;;;;21.59;37.14;101521.77;108127;1249;73256;-83
2022/06/15 07:55:32;;;;;;;2.60;1.50;;;;;;;21.81;36.59;101522.44;108422;1249;70023;-82
2022/06/15 07:58:02;;;;;;;2.80;1.30;;;;;;;21.67;35.89;101522.85;108112;1249;69773;-83
2022/06/15 08:00:34;;;;;;;3.50;1.50;;;;;;;21.54;36.06;101517.34;107762;1251;73525;-83
2022/06/15 08:03:04;;;;;;;9.10;1.90;;;;;;;21.80;36.19;101517.70;107747;1249;61269;-80
2022/06/15 08:05:40;;;;;;;3.90;1.40;;;;;;;22.13;35.78;101522.18;107590;1249;61029;-81
2022/06/15 08:08:16;;;;;;;2.70;1.40;;;;;;;22.26;35.71;101524.02;107496;1249;62668;-83
2022/06/15 08:10:46;;;;;;;2.20;1.30;;;;;;;22.39;35.40;101523.45;107540;1249;70493;-80
2022/06/15 08:13:17;;;;;;;3.30;1.30;;;;;;;22.58;35.24;101520.46;107488;1249;59517;-82
2022/06/15 08:15:48;;;;;;;3.10;1.40;;;;;;;22.69;34.96;101515.70;107475;1250;63320;-84
2022/06/15 08:18:28;;;;;;;4.90;1.60;;;;;;;22.93;34.46;101514.20;107287;1249;58920;-82
2022/06/15 08:21:07;;;;;;;4.90;1.70;;;;;;;23.17;34.42;101514.32;107573;1249;61830;-81
2022/06/15 08:23:41;;;;;;;3.90;1.40;;;;;;;23.45;34.08;101511.05;107478;1249;74060;-77
2022/06/15 08:26:17;;;;;;;3.60;1.30;;;;;;;23.58;33.79;101506.80;107504;1249;72045;-83
2022/06/15 08:28:51;;;;;;;4.60;1.30;;;;;;;23.55;33.96;101512.15;107212;1249;70297;-85
2022/06/15 08:31:20;;;;;;;5.20;1.60;;;;;;;23.20;33.94;101510.16;107438;1250;74673;-85
2022/06/15 08:33:50;;;;;;;1.60;1.20;;;;;;;22.84;34.52;101513.35;107474;1249;59038;-85
2022/06/15 08:36:20;;;;;;;4.20;1.70;;;;;;;22.90;33.93;101511.77;107378;1249;60354;-82
2022/06/15 08:38:49;;;;;;;3.90;1.50;;;;;;;22.93;33.69;101508.27;107381;1249;62809;-83
2022/06/15 08:41:36;;;;;;;2.90;1.30;;;;;;;22.98;33.83;101509.43;107310;1251;69874;-83
2022/06/15 08:44:35;;;;;;;3.80;1.50;;;;;;;22.89;34.13;101514.86;107432;1249;59863;-82
2022/06/15 08:47:19;;;;;;;1.80;1.30;;;;;;;22.90;34.19;101512.49;107484;1249;62508;-84
2022/06/15 08:50:28;;;;;;;3.90;1.40;;;;;;;22.77;34.27;101508.27;107415;1249;57977;-83
2022/06/15 08:53:42;;;;;;;5.80;1.70;;;;;;;22.87;34.40;101509.28;107269;1250;61294;-82
2022/06/15 08:56:44;;;;;;;3.30;1.60;;;;;;;22.95;34.37;101515.28;107471;1249;63585;-83
2022/06/15 08:59:57;;;;;;;3.00;1.50;;;;;;;23.11;33.85;101509.02;107448;1249;71890;-82
2022/06/15 09:03:04;;;;;;;4.30;1.80;;;;;;;23.12;34.66;101510.73;107401;1249;71205;-84
2022/06/15 09:06:10;;;;;;;4.30;1.70;;;;;;;23.02;34.61;101513.97;107377;1249;63768;-81
2022/06/15 09:08:47;;;;;;;3.60;1.50;;;;;;;23.16;33.60;101518.90;107451;1249;59146;-83
2022/06/15 09:11:51;;;;;;;2.30;1.40;;;;;;;23.32;33.41;101516.22;107401;1250;61315;-86
2022/06/15 09:14:46;;;;;;;5.30;1.60;;;;;;;23.37;33.44;101514.23;107429;1250;63608;-84
2022/06/15 09:17:20;;;;;;;4.90;1.60;;;;;;;23.54;33.57;101520.48;107366;1249;71579;-83
2022/06/15 09:20:43;;;;;;;5.30;1.40;;;;;;;23.21;34.01;101522.44;107418;1249;69818;-83
2022/06/15 09:23:31;;;;;;;4.30;1.40;;;;;;;23.09;34.06;101523.59;107436;1249;63754;-82
2022/06/15 09:26:27;;;;;;;2.70;1.30;;;;;;;23.10;34.19;101521.02;107421;1252;59711;-84
2022/06/15 09:29:33;;;;;;;3.30;1.40;;;;;;;23.28;33.60;101509.05;107378;1249;61348;-85
2022/06/15 09:32:23;;;;;;;3.10;1.60;;;;;;;23.52;33.01;101513.41;107359;1249;73447;-84
2022/06/15 09:35:09;;;;;;;4.00;1.40;;;;;;;23.18;33.38;101513.48;107352;1249;62427;-84
2022/06/15 09:37:48;;;;;;;2.20;1.30;;;;;;;23.34;33.39;101514.17;107480;1249;59213;-84
2022/06/15 09:40:18;;;;;;;3.40;1.50;;;;;;;23.09;33.59;101512.83;107630;1249;73147;-82
2022/06/15 09:43:01;;;;;;;5.60;1.50;;;;;;;23.52;33.05;101509.14;107400;1249;57610;-82
2022/06/15 09:45:45;;;;;;;6.90;1.70;;;;;;;23.83;32.69;101515.76;107509;1249;59960;-83
2022/06/15 09:48:40;;;;;;;2.60;1.30;;;;;;;23.87;32.30;101506.30;107530;1249;63588;-83
2022/06/15 09:51:57;;;;;;;4.10;1.40;;;;;;;24.07;30.96;101498.89;107392;1249;60939;-84
2022/06/15 09:55:02;;;;;;;4.30;1.40;;;;;;;24.15;30.80;101497.52;107408;1249;69587;-83
2022/06/15 09:57:31;;;;;;;4.60;1.60;;;;;;;23.97;30.94;101498.90;107366;1249;63278;-82
2022/06/15 10:00:05;;;;;;;2.30;1.20;;;;;;;23.84;31.45;101499.65;107295;1251;59062;-81
2022/06/15 10:02:42;;;;;;;2.70;1.50;;;;;;;23.80;31.37;101504.14;107321;1249;59004;-84
2022/06/15 10:05:32;;;;;;;3.30;1.50;;;;;;;24.25;30.49;101498.63;107485;1250;64386;-85
2022/06/15 10:08:10;;;;;;;2.70;1.30;;;;;;;24.59;29.77;101486.11;107413;1249;71392;-84
2022/06/15 10:10:52;;;;;;;3.70;1.50;;;;;;;24.52;29.73;101483.40;107323;1252;59578;-80
2022/06/15 10:13:20;;;;;;;3.00;1.40;;;;;;;24.13;30.65;101485.65;107501;1249;73569;-80
2022/06/15 10:16:04;;;;;;;2.60;1.20;;;;;;;24.36;30.43;101488.48;107413;1250;60670;-81
2022/06/15 10:18:46;;;;;;;3.90;1.40;;;;;;;24.56;30.19;101482.09;107399;1250;59113;-79
2022/06/15 10:21:15;;;;;;;2.70;1.20;;;;;;;24.51;30.17;101482.42;107521;1249;72266;-82
2022/06/15 10:23:47;;;;;;;4.10;1.50;;;;;;;24.25;30.66;101490.45;107439;1249;72021;-81
2022/06/15 10:26:51;;;;;;;4.60;1.40;;;;;;;24.54;30.83;101485.96;107524;1249;71139;-84
2022/06/15 10:29:31;;;;;;;4.40;1.50;;;;;;;25.01;30.45;101481.70;107460;1249;74431;-83
2022/06/15 10:32:03;;;;;;;2.50;1.30;;;;;;;25.21;29.83;101485.87;107445;1249;58913;-81
2022/06/15 10:34:36;;;;;;;7.40;1.80;;;;;;;25.42;29.44;101483.06;107469;1249;59023;-83
2022/06/15 10:37:17;;;;;;;4.80;1.80;;;;;;;25.48;29.19;101478.46;107599;1249;62645;-83
2022/06/15 10:39:53;;;;;;;3.20;1.30;;;;;;;25.74;28.71;101477.37;107450;1250;72309;-80
2022/06/15 10:42:41;;;;;;;4.00;1.60;;;;;;;25.89;28.76;101473.16;107473;1249;60424;-80
2022/06/15 10:45:48;;;;;;;5.00;1.50;;;;;;;25.57;29.03;101472.19;107169;1249;72061;-84
2022/06/15 10:48:28;;;;;;;3.30;1.70;;;;;;;24.89;29.33;101466.59;107143;1249;60652;-83
2022/06/15 10:50:56;;;;;;;3.40;1.50;;;;;;;25.11;29.59;101470.17;107289;1250;61493;-85
2022/06/15 10:53:46;;;;;;;2.00;1.40;;;;;;;25.33;29.54;101472.51;107346;1249;73550;-81
2022/06/15 11:02:38;;;;;;;3.80;1.30;;;;;;;26.26;28.84;101475.54;107415;1249;63053;-84
2022/06/15 11:05:10;;;;;;;5.20;1.80;;;;;;;26.48;28.60;101466.71;107460;1250;57907;-85
2022/06/15 11:07:51;;;;;;;3.70;1.70;;;;;;;26.69;28.10;101462.36;107547;1249;59044;-84
2022/06/15 11:10:42;;;;;;;4.70;2.00;;;;;;;26.94;27.34;101451.04;108004;1249;63607;-83
2022/06/15 11:13:31;;;;;;;6.70;1.60;;;;;;;26.99;27.28;101448.66;108165;1249;61706;-84
2022/06/15 11:19:27;;;;;;;2.90;1.40;;;;;;;27.24;26.23;101447.84;107606;1250;63348;-87
2022/06/15 11:22:13;;;;;;;2.80;1.40;;;;;;;27.04;26.83;101448.05;107552;1250;60557;-86
2022/06/15 11:24:52;;;;;;;4.30;1.80;;;;;;;27.43;26.45;101444.50;107620;1250;57727;-85
2022/06/15 11:27:39;;;;;;;6.00;1.40;;;;;;;27.08;26.46;101442.25;107689;1249;62920;-87
2022/06/15 11:30:38;;;;;;;3.90;1.50;;;;;;;28.01;25.85;101441.53;106788;1251;793115;-87
2022/06/15 11:33:18;;;;;;;3.30;1.40;;;;;;;28.39;25.41;101436.11;107447;1250;71973;-87
2022/06/15 11:35:56;;;;;;;4.60;1.40;;;;;;;28.21;24.77;101441.14;107209;1251;63756;-85
2022/06/15 11:39:10;;;;;;;3.40;1.20;;;;;;;27.15;26.26;101445.11;107350;1250;61312;-85
2022/06/15 11:41:57;;;;;;;4.60;1.70;;;;;;;27.40;25.82;101432.27;107544;1250;61729;-86
2022/06/15 11:44:33;;;;;;;3.20;1.60;;;;;;;27.60;24.92;101430.95;107416;1250;64691;-85
2022/06/15 11:47:37;;;;;;;3.30;1.50;;;;;;;27.40;25.10;101434.52;107545;1250;72550;-85
2022/06/15 11:50:41;;;;;;;3.60;1.50;;;;;;;28.08;24.87;101435.73;107838;1249;59440;-85
2022/06/15 11:53:42;;;;;;;3.00;1.50;;;;;;;28.54;24.25;101430.98;107477;1250;72302;-84
2022/06/15 11:56:16;;;;;;;2.10;1.20;;;;;;;29.04;23.41;101431.92;107359;1250;58933;-85
2022/06/15 11:59:18;;;;;;;2.60;1.50;;;;;;;29.36;23.71;101429.97;107587;1250;59975;-85
2022/06/15 12:02:15;;;;;;;2.00;1.30;;;;;;;29.84;22.53;101427.51;107398;1250;74245;-85
2022/06/15 12:05:19;;;;;;;7.70;1.60;;;;;;;30.17;22.21;101430.41;107725;1250;61330;-85
2022/06/15 12:08:20;;;;;;;1.20;0.90;;;;;;;30.04;21.97;101424.93;107615;1249;59920;-83
2022/06/15 12:14:34;;;;;;;3.80;1.40;;;;;;;30.49;20.91;101415.08;107440;1249;61870;-82
2022/06/15 12:17:14;;;;;;;2.60;1.40;;;;;;;29.76;20.75;101411.32;107414;1251;57558;-84
2022/06/15 12:19:51;;;;;;;1.80;1.10;;;;;;;28.83;22.18;101413.45;107452;1250;73725;-83
2022/06/15 12:22:41;;;;;;;2.10;1.20;;;;;;;28.43;22.85;101411.52;107608;1250;61399;-84
2022/06/15 12:25:16;;;;;;;7.90;1.50;;;;;;;28.53;23.41;101412.33;107606;1250;60021;-83
2022/06/15 12:28:26;;;;;;;2.60;1.30;;;;;;;28.78;22.74;101413.55;107592;1248;72474;-81